Terminal Aerodrome Forecast
Issued by NWS

Current Version | Previous Version | Text Only | Print | Product List | Glossary On
Versions: 1 2 3 4 5 6 7 8 9 10 11 12 13 14
334
FTUS44 KLIX 271136
TAFGPT
TAF
KGPT 271136Z 2712/2812 33006KT P6SM BKN040
     FM271500 30008KT P6SM BKN050
     FM271900 23005KT P6SM SKC
     FM280000 16007KT P6SM SKC=

USA.gov is the U.S. government's official web portal to all federal, state and local government web resources and services.